sensor_id;sensor_type;location;lat;lon;timestamp;pressure;altitude;pressure_sealevel;temperature
72405;BMP280;60395;52.020;113.548;2023-02-10T00:00:27;92041.53;;;-15.69
72405;BMP280;60395;52.020;113.548;2023-02-10T00:03:31;92049.84;;;-15.59
72405;BMP280;60395;52.020;113.548;2023-02-10T00:06:34;92044.06;;;-15.52
72405;BMP280;60395;52.020;113.548;2023-02-10T00:09:38;92051.84;;;-15.41
72405;BMP280;60395;52.020;113.548;2023-02-10T00:12:41;92044.28;;;-15.41
72405;BMP280;60395;52.020;113.548;2023-02-10T00:15:44;92043.47;;;-15.43
72405;BMP280;60395;52.020;113.548;2023-02-10T00:18:48;92047.16;;;-15.44
72405;BMP280;60395;52.020;113.548;2023-02-10T00:21:51;92049.41;;;-15.48
72405;BMP280;60395;52.020;113.548;2023-02-10T00:24:55;92053.38;;;-15.45
72405;BMP280;60395;52.020;113.548;2023-02-10T00:27:58;92059.31;;;-15.50
72405;BMP280;60395;52.020;113.548;2023-02-10T00:31:12;92059.91;;;-15.59
72405;BMP280;60395;52.020;113.548;2023-02-10T00:34:17;92056.31;;;-15.56
72405;BMP280;60395;52.020;113.548;2023-02-10T00:37:20;92055.78;;;-15.47
72405;BMP280;60395;52.020;113.548;2023-02-10T00:40:26;92059.19;;;-15.52
72405;BMP280;60395;52.020;113.548;2023-02-10T00:43:29;92050.63;;;-15.74
72405;BMP280;60395;52.020;113.548;2023-02-10T00:46:33;92063.41;;;-15.62
72405;BMP280;60395;52.020;113.548;2023-02-10T00:49:36;92068.28;;;-15.39
72405;BMP280;60395;52.020;113.548;2023-02-10T00:52:39;92064.22;;;-15.18
72405;BMP280;60395;52.020;113.548;2023-02-10T00:55:43;92073.19;;;-15.07
72405;BMP280;60395;52.020;113.548;2023-02-10T00:58:47;92065.41;;;-15.01
72405;BMP280;60395;52.020;113.548;2023-02-10T01:01:50;92075.72;;;-14.90
72405;BMP280;60395;52.020;113.548;2023-02-10T01:04:54;92076.66;;;-14.68
72405;BMP280;60395;52.020;113.548;2023-02-10T01:07:57;92075.59;;;-14.48
72405;BMP280;60395;52.020;113.548;2023-02-10T01:11:04;92071.56;;;-14.33
72405;BMP280;60395;52.020;113.548;2023-02-10T01:14:07;92068.13;;;-14.28
72405;BMP280;60395;52.020;113.548;2023-02-10T01:17:10;92067.31;;;-14.14
72405;BMP280;60395;52.020;113.548;2023-02-10T01:20:17;92073.84;;;-14.01
72405;BMP280;60395;52.020;113.548;2023-02-10T01:23:21;92068.03;;;-13.94
72405;BMP280;60395;52.020;113.548;2023-02-10T01:26:25;92056.19;;;-13.91
72405;BMP280;60395;52.020;113.548;2023-02-10T01:29:28;92065.94;;;-13.78
72405;BMP280;60395;52.020;113.548;2023-02-10T01:32:31;92062.13;;;-13.60
72405;BMP280;60395;52.020;113.548;2023-02-10T01:35:38;92063.50;;;-13.39
72405;BMP280;60395;52.020;113.548;2023-02-10T01:38:44;92064.84;;;-13.29
72405;BMP280;60395;52.020;113.548;2023-02-10T01:41:48;92070.16;;;-13.25
72405;BMP280;60395;52.020;113.548;2023-02-10T01:47:55;92070.84;;;-12.86
72405;BMP280;60395;52.020;113.548;2023-02-10T01:51:04;92070.69;;;-12.49
72405;BMP280;60395;52.020;113.548;2023-02-10T01:54:14;92072.09;;;-12.27
72405;BMP280;60395;52.020;113.548;2023-02-10T01:57:19;92075.09;;;-12.19
72405;BMP280;60395;52.020;113.548;2023-02-10T02:00:24;92070.94;;;-12.04
72405;BMP280;60395;52.020;113.548;2023-02-10T02:03:28;92080.88;;;-11.97
72405;BMP280;60395;52.020;113.548;2023-02-10T02:06:32;92082.75;;;-11.88
72405;BMP280;60395;52.020;113.548;2023-02-10T02:09:36;92082.16;;;-11.77
72405;BMP280;60395;52.020;113.548;2023-02-10T02:16:37;92084.09;;;-11.96
72405;BMP280;60395;52.020;113.548;2023-02-10T02:33:19;92092.66;;;-12.11
72405;BMP280;60395;52.020;113.548;2023-02-10T02:36:29;92092.38;;;-12.05
72405;BMP280;60395;52.020;113.548;2023-02-10T02:39:33;92093.94;;;-11.91
72405;BMP280;60395;52.020;113.548;2023-02-10T02:42:37;92089.56;;;-11.69
72405;BMP280;60395;52.020;113.548;2023-02-10T02:45:53;92095.22;;;-11.49
72405;BMP280;60395;52.020;113.548;2023-02-10T02:50:01;92098.97;;;-11.50
72405;BMP280;60395;52.020;113.548;2023-02-10T02:56:33;92098.81;;;-11.52
72405;BMP280;60395;52.020;113.548;2023-02-10T03:02:54;92103.03;;;-11.45
72405;BMP280;60395;52.020;113.548;2023-02-10T03:05:59;92105.00;;;-11.34
72405;BMP280;60395;52.020;113.548;2023-02-10T03:09:02;92104.81;;;-11.26
72405;BMP280;60395;52.020;113.548;2023-02-10T03:12:06;92102.81;;;-11.07
72405;BMP280;60395;52.020;113.548;2023-02-10T03:15:09;92100.91;;;-10.85
72405;BMP280;60395;52.020;113.548;2023-02-10T03:18:15;92103.72;;;-10.69
72405;BMP280;60395;52.020;113.548;2023-02-10T03:21:19;92100.34;;;-10.62
72405;BMP280;60395;52.020;113.548;2023-02-10T03:24:22;92103.56;;;-10.50
72405;BMP280;60395;52.020;113.548;2023-02-10T03:27:26;92104.59;;;-10.20
72405;BMP280;60395;52.020;113.548;2023-02-10T03:30:29;92108.59;;;-10.05
72405;BMP280;60395;52.020;113.548;2023-02-10T03:34:08;92106.41;;;-9.99
72405;BMP280;60395;52.020;113.548;2023-02-10T03:37:51;92093.38;;;-10.05
72405;BMP280;60395;52.020;113.548;2023-02-10T03:45:03;92081.44;;;-10.14
72405;BMP280;60395;52.020;113.548;2023-02-10T03:49:00;92092.91;;;-10.02
72405;BMP280;60395;52.020;113.548;2023-02-10T03:52:15;92094.25;;;-9.89
72405;BMP280;60395;52.020;113.548;2023-02-10T03:55:31;92092.72;;;-9.94
72405;BMP280;60395;52.020;113.548;2023-02-10T04:02:25;92077.25;;;-10.33
72405;BMP280;60395;52.020;113.548;2023-02-10T04:05:50;92084.09;;;-9.89
72405;BMP280;60395;52.020;113.548;2023-02-10T04:09:15;92073.78;;;-9.68
72405;BMP280;60395;52.020;113.548;2023-02-10T04:12:47;92077.09;;;-9.65
72405;BMP280;60395;52.020;113.548;2023-02-10T04:16:21;92083.09;;;-9.72
72405;BMP280;60395;52.020;113.548;2023-02-10T04:19:47;92072.81;;;-9.86
72405;BMP280;60395;52.020;113.548;2023-02-10T04:23:01;92062.97;;;-9.68
72405;BMP280;60395;52.020;113.548;2023-02-10T04:26:28;92066.69;;;-9.46
72405;BMP280;60395;52.020;113.548;2023-02-10T04:29:46;92062.47;;;-9.41
72405;BMP280;60395;52.020;113.548;2023-02-10T04:33:40;92062.59;;;-9.39
72405;BMP280;60395;52.020;113.548;2023-02-10T04:37:25;92057.16;;;-9.34
72405;BMP280;60395;52.020;113.548;2023-02-10T04:41:17;92037.94;;;-9.37
72405;BMP280;60395;52.020;113.548;2023-02-10T04:44:34;92035.25;;;-9.27
72405;BMP280;60395;52.020;113.548;2023-02-10T04:47:38;92047.97;;;-9.02
72405;BMP280;60395;52.020;113.548;2023-02-10T04:50:42;92048.13;;;-8.86
72405;BMP280;60395;52.020;113.548;2023-02-10T04:53:45;92037.38;;;-8.84
72405;BMP280;60395;52.020;113.548;2023-02-10T04:56:52;92035.34;;;-8.74
72405;BMP280;60395;52.020;113.548;2023-02-10T04:59:55;92043.19;;;-8.57
72405;BMP280;60395;52.020;113.548;2023-02-10T05:02:58;92043.78;;;-8.44
72405;BMP280;60395;52.020;113.548;2023-02-10T05:06:27;92035.88;;;-8.37
72405;BMP280;60395;52.020;113.548;2023-02-10T05:10:06;92031.81;;;-8.14
72405;BMP280;60395;52.020;113.548;2023-02-10T05:13:25;92045.94;;;-7.70
72405;BMP280;60395;52.020;113.548;2023-02-10T05:16:42;92043.50;;;-7.68
72405;BMP280;60395;52.020;113.548;2023-02-10T05:19:47;92038.97;;;-7.70
72405;BMP280;60395;52.020;113.548;2023-02-10T05:22:50;92045.16;;;-7.46
72405;BMP280;60395;52.020;113.548;2023-02-10T05:25:54;92046.66;;;-7.40
72405;BMP280;60395;52.020;113.548;2023-02-10T05:28:58;92043.06;;;-7.49
72405;BMP280;60395;52.020;113.548;2023-02-10T05:32:06;92045.63;;;-7.49
72405;BMP280;60395;52.020;113.548;2023-02-10T05:35:10;92036.53;;;-7.38
72405;BMP280;60395;52.020;113.548;2023-02-10T05:38:13;92038.78;;;-7.31
72405;BMP280;60395;52.020;113.548;2023-02-10T05:41:17;92049.22;;;-7.40
72405;BMP280;60395;52.020;113.548;2023-02-10T05:44:20;92034.47;;;-7.56
72405;BMP280;60395;52.020;113.548;2023-02-10T05:47:23;92047.34;;;-7.54
72405;BMP280;60395;52.020;113.548;2023-02-10T05:50:27;92044.69;;;-7.42
72405;BMP280;60395;52.020;113.548;2023-02-10T05:53:32;92049.06;;;-7.58
72405;BMP280;60395;52.020;113.548;2023-02-10T05:56:37;92049.16;;;-7.70
72405;BMP280;60395;52.020;113.548;2023-02-10T05:59:40;92045.47;;;-7.53
72405;BMP280;60395;52.020;113.548;2023-02-10T06:02:44;92053.91;;;-7.35
72405;BMP280;60395;52.020;113.548;2023-02-10T06:05:48;92055.03;;;-7.38
72405;BMP280;60395;52.020;113.548;2023-02-10T06:08:52;92056.94;;;-7.38
72405;BMP280;60395;52.020;113.548;2023-02-10T06:11:55;92064.97;;;-7.30
72405;BMP280;60395;52.020;113.548;2023-02-10T06:14:58;92057.59;;;-7.38
72405;BMP280;60395;52.020;113.548;2023-02-10T06:18:02;92059.59;;;-7.50
72405;BMP280;60395;52.020;113.548;2023-02-10T06:21:05;92058.19;;;-7.39
72405;BMP280;60395;52.020;113.548;2023-02-10T06:24:08;92051.53;;;-7.31
72405;BMP280;60395;52.020;113.548;2023-02-10T06:27:12;92047.78;;;-7.30
72405;BMP280;60395;52.020;113.548;2023-02-10T06:30:17;92050.47;;;-7.26
72405;BMP280;60395;52.020;113.548;2023-02-10T06:33:20;92054.75;;;-7.30
72405;BMP280;60395;52.020;113.548;2023-02-10T06:36:24;92062.03;;;-7.38
72405;BMP280;60395;52.020;113.548;2023-02-10T06:39:27;92052.72;;;-7.48
72405;BMP280;60395;52.020;113.548;2023-02-10T06:42:33;92054.94;;;-7.26
72405;BMP280;60395;52.020;113.548;2023-02-10T06:45:36;92061.16;;;-7.00
72405;BMP280;60395;52.020;113.548;2023-02-10T06:48:40;92057.47;;;-6.97
72405;BMP280;60395;52.020;113.548;2023-02-10T06:51:44;92049.47;;;-7.05
72405;BMP280;60395;52.020;113.548;2023-02-10T06:54:47;92057.59;;;-7.09
72405;BMP280;60395;52.020;113.548;2023-02-10T06:57:50;92055.16;;;-7.06
72405;BMP280;60395;52.020;113.548;2023-02-10T07:00:53;92052.25;;;-7.15
72405;BMP280;60395;52.020;113.548;2023-02-10T07:03:57;92051.09;;;-7.12
72405;BMP280;60395;52.020;113.548;2023-02-10T07:07:00;92056.72;;;-6.99
72405;BMP280;60395;52.020;113.548;2023-02-10T07:10:03;92052.28;;;-6.99
72405;BMP280;60395;52.020;113.548;2023-02-10T07:13:07;92049.56;;;-7.03
72405;BMP280;60395;52.020;113.548;2023-02-10T07:16:10;92054.09;;;-7.01
72405;BMP280;60395;52.020;113.548;2023-02-10T07:19:17;92054.75;;;-7.01
72405;BMP280;60395;52.020;113.548;2023-02-10T07:22:20;92047.72;;;-7.00
72405;BMP280;60395;52.020;113.548;2023-02-10T07:25:24;92056.19;;;-6.82
72405;BMP280;60395;52.020;113.548;2023-02-10T07:28:27;92055.84;;;-6.75
72405;BMP280;60395;52.020;113.548;2023-02-10T07:31:30;92055.63;;;-6.65
72405;BMP280;60395;52.020;113.548;2023-02-10T07:34:37;92057.25;;;-6.56
72405;BMP280;60395;52.020;113.548;2023-02-10T07:37:43;92060.22;;;-6.77
72405;BMP280;60395;52.020;113.548;2023-02-10T07:40:46;92061.94;;;-6.82
72405;BMP280;60395;52.020;113.548;2023-02-10T07:43:49;92069.56;;;-6.68
72405;BMP280;60395;52.020;113.548;2023-02-10T07:46:53;92065.16;;;-6.50
72405;BMP280;60395;52.020;113.548;2023-02-10T07:49:57;92065.59;;;-6.40
72405;BMP280;60395;52.020;113.548;2023-02-10T07:53:00;92067.31;;;-6.28
72405;BMP280;60395;52.020;113.548;2023-02-10T07:56:04;92071.00;;;-6.16
72405;BMP280;60395;52.020;113.548;2023-02-10T07:59:07;92072.84;;;-6.18
72405;BMP280;60395;52.020;113.548;2023-02-10T08:02:11;92078.53;;;-6.20
72405;BMP280;60395;52.020;113.548;2023-02-10T08:05:14;92081.06;;;-6.20
72405;BMP280;60395;52.020;113.548;2023-02-10T08:08:18;92079.50;;;-6.11
72405;BMP280;60395;52.020;113.548;2023-02-10T08:11:21;92077.75;;;-6.07
72405;BMP280;60395;52.020;113.548;2023-02-10T08:14:25;92077.75;;;-6.07
72405;BMP280;60395;52.020;113.548;2023-02-10T08:17:28;92076.44;;;-6.08
72405;BMP280;60395;52.020;113.548;2023-02-10T08:20:31;92080.25;;;-6.09
72405;BMP280;60395;52.020;113.548;2023-02-10T08:23:35;92081.41;;;-6.12
72405;BMP280;60395;52.020;113.548;2023-02-10T08:26:39;92081.06;;;-6.20
72405;BMP280;60395;52.020;113.548;2023-02-10T08:29:43;92079.66;;;-6.23
72405;BMP280;60395;52.020;113.548;2023-02-10T08:32:46;92072.81;;;-6.34
72405;BMP280;60395;52.020;113.548;2023-02-10T08:35:51;92085.84;;;-6.44
72405;BMP280;60395;52.020;113.548;2023-02-10T08:38:54;92086.34;;;-6.63
72405;BMP280;60395;52.020;113.548;2023-02-10T08:41:57;92092.06;;;-6.78
72405;BMP280;60395;52.020;113.548;2023-02-10T08:45:01;92092.81;;;-6.91
72405;BMP280;60395;52.020;113.548;2023-02-10T08:48:04;92089.16;;;-7.02
72405;BMP280;60395;52.020;113.548;2023-02-10T08:51:09;92091.91;;;-7.12
72405;BMP280;60395;52.020;113.548;2023-02-10T08:54:13;92087.00;;;-7.21
72405;BMP280;60395;52.020;113.548;2023-02-10T08:57:16;92099.06;;;-7.37
72405;BMP280;60395;52.020;113.548;2023-02-10T09:00:20;92104.47;;;-7.59
72405;BMP280;60395;52.020;113.548;2023-02-10T09:03:24;92096.66;;;-7.76
72405;BMP280;60395;52.020;113.548;2023-02-10T09:06:35;92105.63;;;-7.89
72405;BMP280;60395;52.020;113.548;2023-02-10T09:09:46;92099.66;;;-7.94
72405;BMP280;60395;52.020;113.548;2023-02-10T09:12:49;92102.78;;;-8.09
72405;BMP280;60395;52.020;113.548;2023-02-10T09:15:52;92104.72;;;-8.35
72405;BMP280;60395;52.020;113.548;2023-02-10T09:18:55;92113.88;;;-8.55
72405;BMP280;60395;52.020;113.548;2023-02-10T09:21:59;92117.72;;;-8.68
72405;BMP280;60395;52.020;113.548;2023-02-10T09:25:02;92119.81;;;-8.89
72405;BMP280;60395;52.020;113.548;2023-02-10T09:28:05;92113.13;;;-9.08
72405;BMP280;60395;52.020;113.548;2023-02-10T09:31:09;92120.47;;;-9.26
72405;BMP280;60395;52.020;113.548;2023-02-10T09:34:15;92131.00;;;-9.43
72405;BMP280;60395;52.020;113.548;2023-02-10T09:37:20;92125.03;;;-9.59
72405;BMP280;60395;52.020;113.548;2023-02-10T09:40:27;92132.03;;;-9.72
72405;BMP280;60395;52.020;113.548;2023-02-10T09:47:50;92137.28;;;-9.91
72405;BMP280;60395;52.020;113.548;2023-02-10T09:51:08;92135.66;;;-9.98
72405;BMP280;60395;52.020;113.548;2023-02-10T09:54:15;92146.03;;;-10.06
72405;BMP280;60395;52.020;113.548;2023-02-10T09:57:25;92146.53;;;-10.19
72405;BMP280;60395;52.020;113.548;2023-02-10T10:00:57;92153.81;;;-10.25
72405;BMP280;60395;52.020;113.548;2023-02-10T10:04:19;92165.38;;;-10.34
72405;BMP280;60395;52.020;113.548;2023-02-10T10:07:34;92158.94;;;-10.46
72405;BMP280;60395;52.020;113.548;2023-02-10T10:10:43;92165.00;;;-10.51
72405;BMP280;60395;52.020;113.548;2023-02-10T10:13:47;92171.94;;;-10.52
72405;BMP280;60395;52.020;113.548;2023-02-10T10:27:20;92176.50;;;-10.72
72405;BMP280;60395;52.020;113.548;2023-02-10T10:30:47;92184.53;;;-10.75
72405;BMP280;60395;52.020;113.548;2023-02-10T10:33:52;92188.03;;;-10.80
72405;BMP280;60395;52.020;113.548;2023-02-10T10:36:57;92195.28;;;-10.86
72405;BMP280;60395;52.020;113.548;2023-02-10T10:40:06;92198.72;;;-11.03
72405;BMP280;60395;52.020;113.548;2023-02-10T10:43:23;92195.19;;;-11.19
72405;BMP280;60395;52.020;113.548;2023-02-10T10:46:34;92200.00;;;-11.23
72405;BMP280;60395;52.020;113.548;2023-02-10T10:49:38;92202.03;;;-11.22
72405;BMP280;60395;52.020;113.548;2023-02-10T10:52:44;92198.16;;;-11.23
72405;BMP280;60395;52.020;113.548;2023-02-10T10:55:50;92203.81;;;-11.34
72405;BMP280;60395;52.020;113.548;2023-02-10T10:58:54;92202.38;;;-11.47
72405;BMP280;60395;52.020;113.548;2023-02-10T11:01:57;92213.47;;;-11.52
72405;BMP280;60395;52.020;113.548;2023-02-10T11:05:11;92220.03;;;-11.58
72405;BMP280;60395;52.020;113.548;2023-02-10T11:08:29;92225.34;;;-11.54
72405;BMP280;60395;52.020;113.548;2023-02-10T11:11:35;92220.28;;;-11.54
72405;BMP280;60395;52.020;113.548;2023-02-10T11:14:43;92227.88;;;-11.54
72405;BMP280;60395;52.020;113.548;2023-02-10T11:17:47;92232.81;;;-11.56
72405;BMP280;60395;52.020;113.548;2023-02-10T11:20:57;92235.59;;;-11.52
72405;BMP280;60395;52.020;113.548;2023-02-10T11:24:01;92236.94;;;-11.51
72405;BMP280;60395;52.020;113.548;2023-02-10T11:27:11;92241.47;;;-11.50
72405;BMP280;60395;52.020;113.548;2023-02-10T11:30:28;92242.81;;;-11.49
72405;BMP280;60395;52.020;113.548;2023-02-10T11:33:33;92248.94;;;-11.52
72405;BMP280;60395;52.020;113.548;2023-02-10T11:36:39;92248.81;;;-11.63
72405;BMP280;60395;52.020;113.548;2023-02-10T11:39:45;92254.06;;;-11.81
72405;BMP280;60395;52.020;113.548;2023-02-10T11:42:56;92258.50;;;-12.00
72405;BMP280;60395;52.020;113.548;2023-02-10T11:46:03;92260.63;;;-12.16
72405;BMP280;60395;52.020;113.548;2023-02-10T11:49:17;92255.94;;;-12.20
72405;BMP280;60395;52.020;113.548;2023-02-10T11:52:23;92259.53;;;-12.13
72405;BMP280;60395;52.020;113.548;2023-02-10T11:55:44;92263.94;;;-12.04
72405;BMP280;60395;52.020;113.548;2023-02-10T11:59:18;92277.13;;;-11.96
72405;BMP280;60395;52.020;113.548;2023-02-10T12:05:45;92273.28;;;-12.07
72405;BMP280;60395;52.020;113.548;2023-02-10T12:12:22;92279.69;;;-12.15
72405;BMP280;60395;52.020;113.548;2023-02-10T12:15:38;92280.59;;;-12.20
72405;BMP280;60395;52.020;113.548;2023-02-10T12:19:08;92292.72;;;-12.28
72405;BMP280;60395;52.020;113.548;2023-02-10T12:32:45;92310.13;;;-12.52
72405;BMP280;60395;52.020;113.548;2023-02-10T12:36:20;92312.91;;;-12.57
72405;BMP280;60395;52.020;113.548;2023-02-10T12:46:22;92313.94;;;-12.60
72405;BMP280;60395;52.020;113.548;2023-02-10T12:50:00;92322.47;;;-12.56
72405;BMP280;60395;52.020;113.548;2023-02-10T12:53:19;92330.50;;;-12.50
72405;BMP280;60395;52.020;113.548;2023-02-10T12:59:58;92336.72;;;-12.60
72405;BMP280;60395;52.020;113.548;2023-02-10T13:03:15;92335.63;;;-12.67
72405;BMP280;60395;52.020;113.548;2023-02-10T13:06:32;92335.22;;;-12.73
72405;BMP280;60395;52.020;113.548;2023-02-10T13:09:47;92340.50;;;-12.79
72405;BMP280;60395;52.020;113.548;2023-02-10T13:12:52;92343.81;;;-12.86
72405;BMP280;60395;52.020;113.548;2023-02-10T13:35:29;92365.53;;;-13.10
72405;BMP280;60395;52.020;113.548;2023-02-10T13:38:34;92368.56;;;-13.11
72405;BMP280;60395;52.020;113.548;2023-02-10T13:41:43;92372.72;;;-13.06
72405;BMP280;60395;52.020;113.548;2023-02-10T13:44:58;92366.75;;;-13.01
72405;BMP280;60395;52.020;113.548;2023-02-10T13:48:23;92375.28;;;-12.96
72405;BMP280;60395;52.020;113.548;2023-02-10T13:51:35;92378.63;;;-12.94
72405;BMP280;60395;52.020;113.548;2023-02-10T13:54:40;92382.34;;;-12.95
72405;BMP280;60395;52.020;113.548;2023-02-10T13:57:59;92378.13;;;-12.92
72405;BMP280;60395;52.020;113.548;2023-02-10T14:01:30;92380.78;;;-12.90
72405;BMP280;60395;52.020;113.548;2023-02-10T14:04:46;92389.53;;;-12.91
72405;BMP280;60395;52.020;113.548;2023-02-10T14:07:50;92396.84;;;-12.95
72405;BMP280;60395;52.020;113.548;2023-02-10T14:14:35;92399.03;;;-12.82
72405;BMP280;60395;52.020;113.548;2023-02-10T14:17:38;92398.38;;;-12.83
72405;BMP280;60395;52.020;113.548;2023-02-10T14:20:55;92388.13;;;-12.85
72405;BMP280;60395;52.020;113.548;2023-02-10T14:23:59;92393.63;;;-12.96
72405;BMP280;60395;52.020;113.548;2023-02-10T14:27:05;92391.22;;;-13.03
72405;BMP280;60395;52.020;113.548;2023-02-10T14:30:19;92388.25;;;-13.10
72405;BMP280;60395;52.020;113.548;2023-02-10T14:33:27;92393.00;;;-13.14
72405;BMP280;60395;52.020;113.548;2023-02-10T14:36:33;92390.34;;;-13.16
72405;BMP280;60395;52.020;113.548;2023-02-10T14:39:36;92396.63;;;-13.07
72405;BMP280;60395;52.020;113.548;2023-02-10T14:42:41;92400.75;;;-13.12
72405;BMP280;60395;52.020;113.548;2023-02-10T14:45:45;92403.50;;;-13.17
72405;BMP280;60395;52.020;113.548;2023-02-10T14:49:00;92404.69;;;-13.18
72405;BMP280;60395;52.020;113.548;2023-02-10T14:52:04;92399.97;;;-13.31
72405;BMP280;60395;52.020;113.548;2023-02-10T14:55:30;92413.56;;;-13.44
72405;BMP280;60395;52.020;113.548;2023-02-10T14:58:34;92420.50;;;-13.52
72405;BMP280;60395;52.020;113.548;2023-02-10T15:01:37;92418.53;;;-13.54
72405;BMP280;60395;52.020;113.548;2023-02-10T15:04:43;92427.38;;;-13.45
72405;BMP280;60395;52.020;113.548;2023-02-10T15:07:57;92429.59;;;-13.32
72405;BMP280;60395;52.020;113.548;2023-02-10T15:11:13;92441.69;;;-13.13
72405;BMP280;60395;52.020;113.548;2023-02-10T15:14:35;92456.47;;;-12.92
72405;BMP280;60395;52.020;113.548;2023-02-10T15:17:44;92458.22;;;-12.85
72405;BMP280;60395;52.020;113.548;2023-02-10T15:20:53;92456.25;;;-13.21
72405;BMP280;60395;52.020;113.548;2023-02-10T15:23:57;92459.59;;;-13.70
72405;BMP280;60395;52.020;113.548;2023-02-10T15:27:22;92457.03;;;-13.88
72405;BMP280;60395;52.020;113.548;2023-02-10T15:30:28;92462.16;;;-13.78
72405;BMP280;60395;52.020;113.548;2023-02-10T15:33:36;92457.97;;;-13.58
72405;BMP280;60395;52.020;113.548;2023-02-10T15:36:53;92462.22;;;-13.44
72405;BMP280;60395;52.020;113.548;2023-02-10T15:40:00;92469.19;;;-13.34
72405;BMP280;60395;52.020;113.548;2023-02-10T15:43:26;92465.84;;;-13.20
72405;BMP280;60395;52.020;113.548;2023-02-10T15:46:31;92474.09;;;-13.19
72405;BMP280;60395;52.020;113.548;2023-02-10T15:49:34;92469.28;;;-13.42
72405;BMP280;60395;52.020;113.548;2023-02-10T15:52:41;92476.34;;;-13.83
72405;BMP280;60395;52.020;113.548;2023-02-10T15:55:44;92474.53;;;-13.90
72405;BMP280;60395;52.020;113.548;2023-02-10T15:58:49;92474.56;;;-13.72
72405;BMP280;60395;52.020;113.548;2023-02-10T16:01:53;92482.16;;;-13.55
72405;BMP280;60395;52.020;113.548;2023-02-10T16:05:06;92488.66;;;-13.45
72405;BMP280;60395;52.020;113.548;2023-02-10T16:08:21;92491.44;;;-13.40
72405;BMP280;60395;52.020;113.548;2023-02-10T16:11:30;92499.41;;;-13.44
72405;BMP280;60395;52.020;113.548;2023-02-10T16:14:34;92504.00;;;-13.50
72405;BMP280;60395;52.020;113.548;2023-02-10T16:17:39;92503.03;;;-13.55
72405;BMP280;60395;52.020;113.548;2023-02-10T16:20:44;92508.97;;;-13.60
72405;BMP280;60395;52.020;113.548;2023-02-10T16:23:48;92511.59;;;-14.00
72405;BMP280;60395;52.020;113.548;2023-02-10T16:26:52;92512.81;;;-14.41
72405;BMP280;60395;52.020;113.548;2023-02-10T16:29:55;92510.03;;;-14.53
72405;BMP280;60395;52.020;113.548;2023-02-10T16:32:59;92516.28;;;-14.61
72405;BMP280;60395;52.020;113.548;2023-02-10T16:36:06;92516.50;;;-14.74
72405;BMP280;60395;52.020;113.548;2023-02-10T16:39:16;92516.16;;;-14.71
72405;BMP280;60395;52.020;113.548;2023-02-10T16:42:20;92517.44;;;-14.62
72405;BMP280;60395;52.020;113.548;2023-02-10T16:45:26;92518.19;;;-14.77
72405;BMP280;60395;52.020;113.548;2023-02-10T16:48:29;92514.88;;;-14.87
72405;BMP280;60395;52.020;113.548;2023-02-10T16:51:33;92529.81;;;-14.89
72405;BMP280;60395;52.020;113.548;2023-02-10T16:54:37;92524.59;;;-14.84
72405;BMP280;60395;52.020;113.548;2023-02-10T16:57:40;92522.53;;;-14.70
72405;BMP280;60395;52.020;113.548;2023-02-10T17:00:44;92519.66;;;-14.59
72405;BMP280;60395;52.020;113.548;2023-02-10T17:03:47;92524.97;;;-14.47
72405;BMP280;60395;52.020;113.548;2023-02-10T17:06:51;92531.00;;;-14.43
72405;BMP280;60395;52.020;113.548;2023-02-10T17:09:57;92529.88;;;-14.57
72405;BMP280;60395;52.020;113.548;2023-02-10T17:13:01;92524.03;;;-14.59
72405;BMP280;60395;52.020;113.548;2023-02-10T17:16:06;92532.38;;;-14.49
72405;BMP280;60395;52.020;113.548;2023-02-10T17:19:14;92533.66;;;-14.40
72405;BMP280;60395;52.020;113.548;2023-02-10T17:22:18;92542.88;;;-14.28
72405;BMP280;60395;52.020;113.548;2023-02-10T17:25:22;92550.72;;;-14.16
72405;BMP280;60395;52.020;113.548;2023-02-10T17:28:26;92548.31;;;-14.06
72405;BMP280;60395;52.020;113.548;2023-02-10T17:31:30;92547.41;;;-13.94
72405;BMP280;60395;52.020;113.548;2023-02-10T17:34:33;92552.41;;;-13.86
72405;BMP280;60395;52.020;113.548;2023-02-10T17:37:39;92556.03;;;-13.80
72405;BMP280;60395;52.020;113.548;2023-02-10T17:40:43;92559.25;;;-13.79
72405;BMP280;60395;52.020;113.548;2023-02-10T17:43:47;92564.00;;;-13.91
72405;BMP280;60395;52.020;113.548;2023-02-10T17:46:51;92565.47;;;-14.05
72405;BMP280;60395;52.020;113.548;2023-02-10T17:49:57;92576.72;;;-14.06
72405;BMP280;60395;52.020;113.548;2023-02-10T17:53:03;92585.16;;;-14.11
72405;BMP280;60395;52.020;113.548;2023-02-10T17:56:06;92578.84;;;-14.20
72405;BMP280;60395;52.020;113.548;2023-02-10T17:59:10;92586.06;;;-14.24
72405;BMP280;60395;52.020;113.548;2023-02-10T18:02:14;92583.59;;;-14.31
72405;BMP280;60395;52.020;113.548;2023-02-10T18:05:17;92586.00;;;-14.49
72405;BMP280;60395;52.020;113.548;2023-02-10T18:08:21;92584.47;;;-14.52
72405;BMP280;60395;52.020;113.548;2023-02-10T18:11:26;92584.50;;;-14.59
72405;BMP280;60395;52.020;113.548;2023-02-10T18:14:33;92603.72;;;-14.94
72405;BMP280;60395;52.020;113.548;2023-02-10T18:17:36;92593.50;;;-15.27
72405;BMP280;60395;52.020;113.548;2023-02-10T18:20:43;92599.19;;;-15.57
72405;BMP280;60395;52.020;113.548;2023-02-10T18:23:48;92598.97;;;-15.82
72405;BMP280;60395;52.020;113.548;2023-02-10T18:26:51;92601.47;;;-15.97
72405;BMP280;60395;52.020;113.548;2023-02-10T18:29:54;92603.47;;;-15.88
72405;BMP280;60395;52.020;113.548;2023-02-10T18:32:57;92606.72;;;-15.80
72405;BMP280;60395;52.020;113.548;2023-02-10T18:36:06;92603.34;;;-15.67
72405;BMP280;60395;52.020;113.548;2023-02-10T18:39:10;92613.09;;;-15.56
72405;BMP280;60395;52.020;113.548;2023-02-10T18:42:13;92619.28;;;-15.72
72405;BMP280;60395;52.020;113.548;2023-02-10T18:45:17;92610.03;;;-15.85
72405;BMP280;60395;52.020;113.548;2023-02-10T18:48:20;92623.91;;;-15.99
72405;BMP280;60395;52.020;113.548;2023-02-10T18:51:23;92626.25;;;-16.09
72405;BMP280;60395;52.020;113.548;2023-02-10T18:54:27;92624.94;;;-15.94
72405;BMP280;60395;52.020;113.548;2023-02-10T18:57:30;92626.34;;;-15.70
72405;BMP280;60395;52.020;113.548;2023-02-10T19:00:34;92622.00;;;-15.55
72405;BMP280;60395;52.020;113.548;2023-02-10T19:03:39;92629.53;;;-15.55